No se requiere ningun cuidado especial respecto a la situación metereológica.   -   No hay avisos

Informes METAR

 

KSJC - San Jose, California, USA
Distancia de la estación: NE 14km
Actualización: 29/09/2020 05:53
Muy nuboso
Muy nuboso
 Viento de NO
Viento: NO 15 km/h
Temperatura: 23°C
Rocío: 14°C
Humedad: 57%
Barómetro: 1012.5 hPa
Nubes: Muy nuboso
Visibilidad: 16 km
Detalles de las nubes: Parcialmente nuboso 1372 m
Muy nuboso 1981 m
2020/09/29 03:53 KSJC 290353Z 32008KT 10SM SCT045 BKN065 23/14 A2990 RMK AO2 SLP125 FU SCT045 FU BKN065 T02280139
KNUQ - Moffett Nas/Mtn, California, USA
Distancia de la estación: N 14km
Actualización: 28/09/2020 15:55
NOT Current
Despejado
Despejado
 Viento de calm
Viento: Calma
Temperatura: 19°C
Rocío: 10°C
Humedad: 56%
Barómetro: 1012.5 hPa
Nubes: Despejado
Visibilidad: 16 km
2020/09/28 13:55 KNUQ 281355Z AUTO 00000KT 10SM CLR 19/10 A2990 RMK AO2
 
KPAO - Palo Alto, California, USA
Distancia de la estación: NNO 23km
Actualización: 29/09/2020 03:47
NOT Current
Contaminación, Despejado
Contaminación, Despejado
 Viento de NNO
Viento: NNO 15 km/h
Temperatura: 23°C
Rocío: 16°C
Humedad: 65%
Barómetro: 1011.2 hPa
Resumen: Contaminación
Nubes: Despejado
Visibilidad: 16 km
2020/09/29 01:47 KPAO 290147Z 33008KT 10SM FU SKC 23/16 A2986 RMK LAST
KRHV - San Jose/Reid, California, USA
Distancia de la estación: ENE 19km
Actualización: 29/09/2020 05:47
Despejado
Despejado
 Viento de ONO
Viento: ONO 7 km/h
Temperatura: 24°C
Rocío: 16°C
Humedad: 61%
Barómetro: 1012.9 hPa
Nubes: Despejado
Visibilidad: 16 km
2020/09/29 03:47 KRHV 290347Z 29004KT 10SM SKC 24/16 A2991
 
KOAK - Oakland, California, USA
Distancia de la estación: NNO 50km
Actualización: 29/09/2020 05:53
Muy nuboso
Muy nuboso
 Viento de N
Viento: N 6 km/h
Temperatura: 19°C
Rocío: 14°C
Humedad: 73%
Barómetro: 1012.9 hPa
Nubes: Muy nuboso
Visibilidad: 16 km
Detalles de las nubes: Poco nuboso 518 m
Muy nuboso 5182 m
2020/09/29 03:53 KOAK 290353Z 35003KT 10SM FEW017 BKN170 19/14 A2991 RMK AO2 SLP128 FU FEW017 FU BKN170 T01890139
KSQL - San Carlos Airpo, California, USA
Distancia de la estación: NO 34km
Actualización: 29/09/2020 05:58
Despejado
Despejado
 Viento de NNO
Viento: NNO 6 km/h
Temperatura: 20°C
Rocío: 15°C
Humedad: 73%
Barómetro: 1013.2 hPa
Nubes: Despejado
Visibilidad: 16 km
2020/09/29 03:58 KSQL 290358Z 34003KT 10SM SKC 20/15 A2992 RMK LAST
 
KSFO - San Francisco, California, USA
Distancia de la estación: NO 49km
Actualización: 29/09/2020 05:56
Poco nuboso
Poco nuboso
 Viento de ONO
Viento: ONO 24 km/h
Temperatura: 19°C
Rocío: 13°C
Humedad: 68%
Barómetro: 1012.5 hPa
Nubes: Poco nuboso
Visibilidad: 16 km
Detalles de las nubes: Poco nuboso 305 m
2020/09/29 03:56 KSFO 290356Z 30013KT 10SM FEW010 19/13 A2990 RMK AO2 SLP123 T01940128
KE16 - San Martin, California, USA
Distancia de la estación: ESE 43km
Actualización: 29/09/2020 05:45

 Viento de S
Viento: S 7 km/h
Temperatura: 18°C
Rocío: 13°C
Humedad: 73%
Barómetro: 1014.2 hPa
Visibilidad: 16 km
2020/09/29 03:45 KE16 290345Z AUTO 17004KT 10SM 18/13 A2995 RMK AO2 PWINO PNO
 
KWVI - Watsonville, California, USA
Distancia de la estación: SSE 44km
Actualización: 29/09/2020 05:53
Neblina, Cubierto
Neblina, Cubierto
 Viento de calm
Viento: Calma
Temperatura: 14°C
Rocío: 14°C
Humedad: 100%
Barómetro: 1014.6 hPa
Resumen: Neblina
Nubes: Cubierto
Visibilidad: 5 km
Detalles de las nubes: Cubierto 61 m
2020/09/29 03:53 KWVI 290353Z AUTO 00000KT 3SM BR OVC002 14/14 A2996 RMK AO2 SLP144 T01390139
KHAF - Half Moon Bay, California, USA
Distancia de la estación: ONO 50km
Actualización: 29/09/2020 05:55
Niebla, Cubierto
Niebla, Cubierto
 Viento de SSE
Viento: SSE 9 km/h
Temperatura: 13°C
Rocío: 13°C
Humedad: 100%
Barómetro: 1014.6 hPa
Resumen: Niebla
Nubes: Cubierto
Visibilidad: 0.4 km
Detalles de las nubes: Cubierto 61 m
2020/09/29 03:55 KHAF 290355Z AUTO 16005KT 1/4SM FG OVC002 13/13 A2996 RMK AO2
 
KHWD - Hayward, California, USA
Distancia de la estación: N 44km
Actualización: 29/09/2020 05:54
Despejado
Despejado
 Viento de NO
Viento: NO 11 km/h
Temperatura: 21°C
Rocío: 12°C
Humedad: 57%
Barómetro: 1012.5 hPa
Nubes: Despejado
Visibilidad: 16 km
2020/09/29 03:54 KHWD 290354Z 31006KT 10SM CLR 21/12 A2990 RMK AO2 SLP134 T02110122
KLVK - Livermore, California, USA
Distancia de la estación: NNE 51km
Actualización: 29/09/2020 05:53
Despejado
Despejado
 Viento de ENE
Viento: ENE 6 km/h
Temperatura: 25°C
Rocío: 2°C
Humedad: 22%
Barómetro: 1012.5 hPa
Nubes: Despejado
Visibilidad: 16 km
2020/09/29 03:53 KLVK 290353Z 06003KT 10SM CLR 25/02 A2990 RMK AO2 SLP119 T02500022